createdAt,value
2023-04-20T00:01:31.824Z,11.10
2023-04-20T00:06:29.565Z,11.10
2023-04-20T00:08:57.853Z,11.00
2023-04-20T00:11:26.589Z,11.00
2023-04-20T00:13:54.698Z,11.00
2023-04-20T00:16:24.136Z,10.90
2023-04-20T00:18:52.493Z,10.90
2023-04-20T00:21:23.908Z,10.90
2023-04-20T00:23:52.080Z,10.90
2023-04-20T00:26:20.848Z,10.90
2023-04-20T00:28:52.161Z,10.80
2023-04-20T00:31:20.832Z,10.90
2023-04-20T00:33:50.322Z,10.90
2023-04-20T00:36:18.466Z,10.80
2023-04-20T00:38:46.597Z,10.70
2023-04-20T00:41:14.667Z,10.60
2023-04-20T00:43:51.247Z,10.60
2023-04-20T00:46:19.515Z,10.60
2023-04-20T00:48:48.083Z,10.60
2023-04-20T00:51:17.698Z,10.50
2023-04-20T00:53:46.024Z,10.50
2023-04-20T00:56:14.806Z,10.50
2023-04-20T00:58:43.618Z,10.40
2023-04-20T01:01:11.830Z,10.40
2023-04-20T01:03:40.696Z,10.40
2023-04-20T01:06:09.841Z,10.40
2023-04-20T01:08:47.156Z,10.30
2023-04-20T01:11:15.476Z,10.20
2023-04-20T01:13:44.542Z,10.30
2023-04-20T01:16:13.119Z,10.30
2023-04-20T01:18:46.423Z,10.20
2023-04-20T01:21:16.350Z,10.20
2023-04-20T01:23:46.365Z,10.20
2023-04-20T01:26:16.145Z,10.20
2023-04-20T01:28:44.591Z,10.20
2023-04-20T01:31:13.688Z,10.30
2023-04-20T01:33:42.091Z,10.30
2023-04-20T01:36:10.702Z,10.30
2023-04-20T01:38:38.887Z,10.40
2023-04-20T01:41:10.711Z,10.50
2023-04-20T01:43:39.672Z,10.50
2023-04-20T01:46:08.080Z,10.50
2023-04-20T01:48:36.185Z,10.50
2023-04-20T01:51:04.364Z,10.50
2023-04-20T01:53:32.412Z,10.50
2023-04-20T01:56:00.511Z,10.50
2023-04-20T01:58:29.971Z,10.50
2023-04-20T02:00:58.126Z,10.50
2023-04-20T02:03:26.416Z,10.60
2023-04-20T02:05:55.501Z,10.50
2023-04-20T02:08:23.656Z,10.60
2023-04-20T02:10:51.685Z,10.60
2023-04-20T02:13:19.855Z,10.60
2023-04-20T02:15:49.465Z,10.50
2023-04-20T02:18:17.833Z,10.60
2023-04-20T02:20:46.536Z,10.50
2023-04-20T02:23:14.685Z,10.60
2023-04-20T02:25:42.883Z,10.60
2023-04-20T02:28:13.022Z,10.60
2023-04-20T02:30:41.049Z,10.60
2023-04-20T02:33:10.525Z,10.60
2023-04-20T02:35:38.988Z,10.50
2023-04-20T02:38:06.989Z,10.50
2023-04-20T02:40:35.027Z,10.60
2023-04-20T02:43:03.677Z,10.60
2023-04-20T02:45:33.491Z,10.60
2023-04-20T02:48:01.869Z,10.50
2023-04-20T02:50:35.021Z,10.60
2023-04-20T02:53:09.564Z,10.60
2023-04-20T02:55:38.653Z,10.50
2023-04-20T02:58:18.897Z,10.50
2023-04-20T03:01:05.262Z,10.50
2023-04-20T03:03:34.915Z,10.50
2023-04-20T03:06:04.580Z,10.40
2023-04-20T03:08:32.646Z,10.40
2023-04-20T03:11:10.516Z,10.50
2023-04-20T03:13:38.550Z,10.50
2023-04-20T03:16:06.999Z,10.40
2023-04-20T03:18:38.064Z,10.40
2023-04-20T03:21:07.594Z,10.40
2023-04-20T03:23:35.902Z,10.30
2023-04-20T03:26:05.398Z,10.30
2023-04-20T03:28:59.407Z,10.40
2023-04-20T03:31:28.326Z,10.40
2023-04-20T03:33:58.493Z,10.30
2023-04-20T03:36:28.277Z,10.30
2023-04-20T03:38:57.855Z,10.40
2023-04-20T03:41:25.979Z,10.30
2023-04-20T03:43:54.010Z,10.30
2023-04-20T03:46:23.210Z,10.30
2023-04-20T03:48:51.762Z,10.20
2023-04-20T03:51:19.819Z,10.20
2023-04-20T03:53:49.205Z,10.30
2023-04-20T03:56:17.322Z,10.30
2023-04-20T03:58:46.065Z,10.20
2023-04-20T04:01:18.002Z,10.30
2023-04-20T04:03:49.412Z,10.30
2023-04-20T04:06:18.650Z,10.20
2023-04-20T04:08:46.712Z,10.10
2023-04-20T04:11:16.113Z,10.00
2023-04-20T04:13:45.449Z,10.00
2023-04-20T04:16:13.604Z,10.00
2023-04-20T04:18:45.768Z,10.00
2023-04-20T04:21:14.033Z,10.00
2023-04-20T04:23:46.315Z,9.90
2023-04-20T04:26:24.591Z,9.90
2023-04-20T04:28:53.813Z,9.90
2023-04-20T04:31:23.481Z,9.90
2023-04-20T04:33:52.554Z,9.90
2023-04-20T04:36:29.123Z,9.80
2023-04-20T04:38:59.270Z,9.80
2023-04-20T04:41:29.680Z,9.80
2023-04-20T04:44:09.077Z,9.90
2023-04-20T04:46:37.798Z,9.80
2023-04-20T04:49:05.873Z,9.80
2023-04-20T04:51:33.932Z,9.90
2023-04-20T04:54:01.993Z,9.90
2023-04-20T04:56:31.357Z,9.90
2023-04-20T04:58:59.408Z,9.90
2023-04-20T05:01:27.475Z,9.80
2023-04-20T05:03:55.944Z,9.70
2023-04-20T05:06:24.115Z,9.80
2023-04-20T05:08:52.160Z,9.90
2023-04-20T05:11:20.335Z,9.90
2023-04-20T05:13:49.866Z,9.90
2023-04-20T05:16:18.055Z,9.90
2023-04-20T05:18:46.112Z,9.90
2023-04-20T05:21:14.190Z,9.90
2023-04-20T05:23:42.197Z,9.90
2023-04-20T05:26:10.232Z,9.90
2023-04-20T05:28:38.312Z,9.80
2023-04-20T05:31:08.042Z,9.80
2023-04-20T05:33:36.163Z,9.70
2023-04-20T05:36:04.438Z,9.80
2023-04-20T05:38:32.431Z,9.80
2023-04-20T05:41:00.621Z,9.80
2023-04-20T05:43:28.633Z,9.80
2023-04-20T05:45:56.649Z,9.90
2023-04-20T05:48:29.532Z,9.80
2023-04-20T05:50:58.407Z,9.80
2023-04-20T05:53:26.891Z,9.90
2023-04-20T05:55:54.927Z,9.90
2023-04-20T05:58:22.988Z,9.80
2023-04-20T06:00:50.993Z,9.80
2023-04-20T06:03:19.226Z,9.90
2023-04-20T06:05:49.472Z,9.80
2023-04-20T06:08:18.969Z,9.90
2023-04-20T06:10:47.119Z,9.80
2023-04-20T06:13:15.202Z,9.80
2023-04-20T06:15:43.239Z,9.80
2023-04-20T06:18:11.376Z,9.90
2023-04-20T06:20:40.386Z,9.90
2023-04-20T06:23:09.744Z,9.90
2023-04-20T06:25:38.099Z,9.90
2023-04-20T06:28:06.632Z,9.90
2023-04-20T06:30:34.836Z,9.90
2023-04-20T06:33:03.073Z,9.90
2023-04-20T06:35:31.505Z,9.90
2023-04-20T06:38:02.423Z,10.00
2023-04-20T06:40:32.063Z,10.00
2023-04-20T06:43:00.169Z,10.00
2023-04-20T06:45:28.219Z,9.90
2023-04-20T06:47:56.267Z,9.90
2023-04-20T06:50:24.412Z,10.00
2023-04-20T06:52:52.430Z,9.90
2023-04-20T06:55:20.968Z,9.90
2023-04-20T06:57:50.455Z,10.00
2023-04-20T07:00:19.617Z,10.00
2023-04-20T07:02:49.727Z,10.00
2023-04-20T07:05:18.927Z,10.00
2023-04-20T07:07:47.090Z,10.00
2023-04-20T07:10:16.007Z,10.00
2023-04-20T07:12:44.505Z,10.00
2023-04-20T07:15:14.009Z,10.10
2023-04-20T07:17:42.125Z,10.10
2023-04-20T07:20:11.102Z,10.10
2023-04-20T07:22:40.180Z,10.00
2023-04-20T07:25:10.458Z,10.00
2023-04-20T07:27:39.672Z,10.00
2023-04-20T07:30:09.388Z,10.10
2023-04-20T07:32:39.749Z,10.00
2023-04-20T07:35:08.732Z,10.10
2023-04-20T07:37:36.854Z,10.10
2023-04-20T07:40:06.758Z,10.10
2023-04-20T07:42:36.780Z,10.10
2023-04-20T07:45:05.457Z,10.20
2023-04-20T07:47:34.683Z,10.10
2023-04-20T07:50:04.365Z,10.20
2023-04-20T07:52:33.830Z,10.10
2023-04-20T07:55:01.850Z,10.10
2023-04-20T07:57:30.432Z,10.10
2023-04-20T07:59:58.424Z,10.20
2023-04-20T08:02:26.545Z,10.20
2023-04-20T08:04:55.031Z,10.30
2023-04-20T08:07:25.107Z,10.40
2023-04-20T08:09:53.134Z,10.40
2023-04-20T08:12:21.122Z,10.40
2023-04-20T08:14:49.155Z,10.50
2023-04-20T08:17:17.179Z,10.40
2023-04-20T08:19:46.125Z,10.40
2023-04-20T08:22:14.367Z,10.40
2023-04-20T08:24:43.692Z,10.30
2023-04-20T08:27:11.709Z,10.30
2023-04-20T08:29:39.799Z,10.30
2023-04-20T08:32:09.663Z,10.30
2023-04-20T08:34:38.135Z,10.40
2023-04-20T08:37:06.666Z,10.50
2023-04-20T08:39:34.730Z,10.60
2023-04-20T08:42:04.267Z,10.70
2023-04-20T08:44:33.112Z,10.60
2023-04-20T08:47:01.433Z,10.70
2023-04-20T08:49:30.653Z,10.80
2023-04-20T08:51:58.704Z,10.90
2023-04-20T08:54:27.124Z,10.90
2023-04-20T08:56:55.632Z,10.90
2023-04-20T08:59:24.969Z,10.80
2023-04-20T09:01:53.027Z,10.80
2023-04-20T09:04:22.971Z,10.80
2023-04-20T09:06:52.843Z,10.90
2023-04-20T09:09:23.886Z,11.00
2023-04-20T09:12:02.102Z,11.20
2023-04-20T09:14:32.048Z,11.40
2023-04-20T09:17:04.994Z,11.40
2023-04-20T09:19:33.319Z,11.50
2023-04-20T09:22:03.856Z,11.40
2023-04-20T09:24:33.512Z,11.50
2023-04-20T09:27:02.446Z,11.50
2023-04-20T09:29:32.121Z,11.50
2023-04-20T09:32:00.308Z,11.40
2023-04-20T09:34:28.428Z,11.60
2023-04-20T09:36:57.674Z,11.70
2023-04-20T09:39:26.885Z,11.90
2023-04-20T09:41:59.730Z,12.00
2023-04-20T09:44:27.831Z,12.10
2023-04-20T09:46:57.670Z,12.20
2023-04-20T09:49:27.265Z,12.30
2023-04-20T09:51:55.661Z,12.40
2023-04-20T09:54:24.105Z,12.40
2023-04-20T09:56:52.993Z,12.50
2023-04-20T09:59:22.829Z,12.50
2023-04-20T10:01:51.153Z,12.50
2023-04-20T10:04:20.809Z,12.60
2023-04-20T10:06:58.161Z,12.60
2023-04-20T10:09:27.071Z,12.60
2023-04-20T10:12:06.017Z,12.70
2023-04-20T10:14:35.541Z,12.70
2023-04-20T10:17:06.277Z,12.70
2023-04-20T10:19:40.622Z,12.80
2023-04-20T10:22:09.486Z,12.80
2023-04-20T10:24:38.938Z,12.90
2023-04-20T10:27:18.049Z,12.90
2023-04-20T10:29:46.389Z,12.90
2023-04-20T10:32:23.913Z,13.00
2023-04-20T10:35:04.697Z,13.00
2023-04-20T10:37:32.961Z,13.00
2023-04-20T10:40:01.465Z,13.10
2023-04-20T10:42:30.305Z,13.10
2023-04-20T10:44:58.355Z,13.10
2023-04-20T10:47:30.875Z,12.90
2023-04-20T10:50:09.548Z,12.80
2023-04-20T10:52:39.717Z,12.80
2023-04-20T10:55:19.001Z,12.70
2023-04-20T10:57:47.102Z,12.60
2023-04-20T11:00:17.550Z,12.60
2023-04-20T11:02:52.632Z,12.60
2023-04-20T11:05:23.323Z,12.70
2023-04-20T11:07:55.065Z,12.90
2023-04-20T11:10:25.411Z,12.90
2023-04-20T11:12:53.428Z,12.90
2023-04-20T11:15:32.201Z,12.80
2023-04-20T11:18:09.413Z,12.70
2023-04-20T11:20:39.515Z,12.60
2023-04-20T11:23:07.528Z,12.50
2023-04-20T11:25:35.553Z,12.40
2023-04-20T11:28:08.674Z,12.30
2023-04-20T11:30:41.154Z,12.30
2023-04-20T11:33:09.634Z,12.40
2023-04-20T11:35:40.141Z,12.50
2023-04-20T11:38:08.569Z,12.40
2023-04-20T11:40:37.327Z,12.50
2023-04-20T11:43:05.501Z,12.50
2023-04-20T11:45:36.205Z,12.50
2023-04-20T11:48:06.317Z,12.50
2023-04-20T11:50:34.492Z,12.50
2023-04-20T11:53:03.844Z,12.60
2023-04-20T11:55:31.852Z,12.50
2023-04-20T11:57:59.862Z,12.50
2023-04-20T12:00:28.102Z,12.50
2023-04-20T12:02:56.305Z,12.70
2023-04-20T12:05:24.610Z,12.90
2023-04-20T12:07:52.675Z,13.00
2023-04-20T12:10:22.352Z,13.00
2023-04-20T12:12:50.392Z,13.20
2023-04-20T12:15:18.554Z,13.30
2023-04-20T12:17:46.676Z,13.30
2023-04-20T12:20:15.128Z,13.20
2023-04-20T12:22:43.127Z,13.10
2023-04-20T12:25:11.338Z,13.10
2023-04-20T12:27:40.744Z,13.00
2023-04-20T12:30:10.013Z,13.00
2023-04-20T12:32:38.097Z,13.00
2023-04-20T12:35:08.176Z,13.10
2023-04-20T12:37:36.823Z,13.10
2023-04-20T12:40:06.321Z,13.20
2023-04-20T12:42:34.530Z,13.10
2023-04-20T12:45:04.425Z,13.10
2023-04-20T12:47:32.587Z,13.20
2023-04-20T12:50:00.957Z,13.30
2023-04-20T12:52:29.274Z,13.40
2023-04-20T12:54:57.309Z,13.40
2023-04-20T12:57:25.350Z,13.40
2023-04-20T12:59:53.553Z,13.30
2023-04-20T13:02:23.069Z,13.40
2023-04-20T13:04:51.980Z,13.40
2023-04-20T13:07:20.069Z,13.40
2023-04-20T13:09:48.091Z,13.40
2023-04-20T13:12:16.132Z,13.40
2023-04-20T13:14:44.167Z,13.40
2023-04-20T13:17:12.168Z,13.40
2023-04-20T13:19:41.574Z,13.30
2023-04-20T13:22:09.643Z,13.30
2023-04-20T13:24:37.649Z,13.20
2023-04-20T13:27:05.946Z,13.20
2023-04-20T13:29:34.053Z,13.10
2023-04-20T13:32:02.241Z,13.00
2023-04-20T13:34:30.395Z,13.00
2023-04-20T13:36:59.854Z,13.00
2023-04-20T13:39:28.070Z,13.00
2023-04-20T13:41:58.194Z,12.90
2023-04-20T13:44:28.678Z,12.80
2023-04-20T13:46:56.826Z,12.80
2023-04-20T13:49:24.866Z,12.70
2023-04-20T13:51:52.904Z,12.70
2023-04-20T13:54:22.319Z,12.60
2023-04-20T13:56:50.368Z,12.60
2023-04-20T13:59:18.385Z,12.60
2023-04-20T14:01:46.398Z,12.60
2023-04-20T14:04:16.684Z,12.60
2023-04-20T14:06:45.109Z,12.60
2023-04-20T14:09:13.296Z,12.60
2023-04-20T14:11:43.560Z,12.50
2023-04-20T14:14:12.024Z,12.40
2023-04-20T14:16:44.375Z,12.30
2023-04-20T14:19:12.413Z,12.30
2023-04-20T14:21:41.023Z,12.20
2023-04-20T14:24:09.148Z,12.30
2023-04-20T14:26:37.182Z,12.30
2023-04-20T14:29:06.660Z,12.30
2023-04-20T14:31:35.408Z,12.30
2023-04-20T14:34:03.824Z,12.40
2023-04-20T14:36:32.386Z,12.40
2023-04-20T14:39:00.398Z,12.40
2023-04-20T14:41:28.422Z,12.50
2023-04-20T14:43:56.389Z,12.50
2023-04-20T14:46:25.879Z,12.50
2023-04-20T14:48:53.865Z,12.50
2023-04-20T14:51:21.878Z,12.40
2023-04-20T14:53:50.037Z,12.40
2023-04-20T14:56:18.023Z,12.50
2023-04-20T14:58:47.901Z,12.40
2023-04-20T15:01:17.038Z,12.40
2023-04-20T15:03:46.604Z,12.40
2023-04-20T15:06:14.682Z,12.40
2023-04-20T15:08:42.695Z,12.40
2023-04-20T15:11:10.707Z,12.40
2023-04-20T15:13:41.060Z,12.30
2023-04-20T15:16:09.637Z,12.30
2023-04-20T15:18:37.673Z,12.30
2023-04-20T15:21:08.302Z,12.30
2023-04-20T15:23:36.310Z,12.30
2023-04-20T15:26:05.527Z,12.30
2023-04-20T15:28:34.949Z,12.20
2023-04-20T15:31:04.229Z,12.20
2023-04-20T15:33:33.956Z,12.20
2023-04-20T15:36:03.836Z,12.20
2023-04-20T15:38:35.418Z,12.10
2023-04-20T15:41:04.908Z,12.10
2023-04-20T15:43:34.250Z,12.10
2023-04-20T15:46:03.978Z,12.00
2023-04-20T15:48:33.326Z,12.00
2023-04-20T15:51:02.649Z,12.00
2023-04-20T15:53:33.736Z,12.00
2023-04-20T15:56:03.127Z,12.00
2023-04-20T15:58:32.739Z,12.00
2023-04-20T16:01:03.142Z,12.00
2023-04-20T16:03:33.230Z,11.90
2023-04-20T16:06:03.036Z,11.90
2023-04-20T16:08:33.946Z,11.90
2023-04-20T16:11:03.199Z,11.90
2023-04-20T16:13:31.822Z,11.80
2023-04-20T16:16:00.120Z,11.90
2023-04-20T16:18:28.196Z,11.90
2023-04-20T16:20:56.632Z,11.90
2023-04-20T16:23:24.824Z,11.90
2023-04-20T16:25:54.199Z,11.90
2023-04-20T16:28:22.213Z,11.90
2023-04-20T16:30:50.252Z,11.80
2023-04-20T16:33:18.706Z,11.80
2023-04-20T16:35:46.695Z,11.80
2023-04-20T16:38:14.681Z,11.80
2023-04-20T16:40:43.609Z,11.80
2023-04-20T16:43:13.011Z,11.70
2023-04-20T16:45:41.833Z,11.80
2023-04-20T16:48:10.173Z,11.70
2023-04-20T16:50:40.211Z,11.70
2023-04-20T16:53:10.317Z,11.70
2023-04-20T16:55:38.360Z,11.70
2023-04-20T16:58:06.498Z,11.70
2023-04-20T17:00:36.367Z,11.70
2023-04-20T17:03:10.185Z,11.70
2023-04-20T17:05:41.640Z,11.70
2023-04-20T17:08:10.304Z,11.70
2023-04-20T17:10:39.193Z,11.70
2023-04-20T17:13:07.206Z,11.60
2023-04-20T17:15:36.708Z,11.50
2023-04-20T17:18:06.770Z,11.60
2023-04-20T17:20:35.324Z,11.60
2023-04-20T17:23:03.432Z,11.60
2023-04-20T17:25:31.580Z,11.50
2023-04-20T17:27:59.631Z,11.50
2023-04-20T17:30:28.402Z,11.50
2023-04-20T17:32:59.226Z,11.50
2023-04-20T17:35:27.625Z,11.50
2023-04-20T17:37:55.666Z,11.50
2023-04-20T17:40:23.661Z,11.50
2023-04-20T17:42:51.665Z,11.50
2023-04-20T17:45:19.894Z,11.40
2023-04-20T17:47:47.957Z,11.40
2023-04-20T17:50:17.588Z,11.40
2023-04-20T17:52:45.649Z,11.40
2023-04-20T17:55:13.807Z,11.40
2023-04-20T17:57:41.891Z,11.30
2023-04-20T18:00:11.902Z,11.30
2023-04-20T18:02:41.341Z,11.30
2023-04-20T18:05:09.934Z,11.30
2023-04-20T18:07:39.294Z,11.30
2023-04-20T18:10:08.568Z,11.20
2023-04-20T18:12:36.673Z,11.30
2023-04-20T18:15:07.491Z,11.30
2023-04-20T18:17:36.374Z,11.30
2023-04-20T18:20:05.764Z,11.30
2023-04-20T18:22:33.802Z,11.30
2023-04-20T18:25:03.280Z,11.30
2023-04-20T18:27:32.340Z,11.30
2023-04-20T18:30:00.634Z,11.30
2023-04-20T18:32:30.820Z,11.30
2023-04-20T18:35:00.214Z,11.30
2023-04-20T18:37:28.295Z,11.30
2023-04-20T18:39:56.522Z,11.10
2023-04-20T18:42:26.182Z,11.10
2023-04-20T18:44:56.112Z,11.10
2023-04-20T18:47:27.058Z,11.20
2023-04-20T18:49:55.319Z,11.20
2023-04-20T18:52:23.962Z,11.20
2023-04-20T18:54:55.231Z,11.10
2023-04-20T18:57:28.345Z,11.10
2023-04-20T18:59:58.194Z,11.10
2023-04-20T19:02:26.477Z,11.00
2023-04-20T19:04:54.756Z,11.10
2023-04-20T19:07:22.802Z,11.10
2023-04-20T19:09:50.841Z,11.10
2023-04-20T19:12:19.051Z,11.00
2023-04-20T19:14:49.098Z,11.00
2023-04-20T19:17:19.983Z,11.00
2023-04-20T19:19:50.920Z,11.00
2023-04-20T19:22:18.946Z,11.00
2023-04-20T19:24:46.941Z,11.00
2023-04-20T19:27:16.210Z,11.00
2023-04-20T19:29:44.231Z,11.00
2023-04-20T19:32:12.314Z,11.00
2023-04-20T19:34:42.026Z,11.00
2023-04-20T19:37:10.060Z,11.10
2023-04-20T19:39:38.110Z,11.00
2023-04-20T19:42:06.203Z,11.00
2023-04-20T19:44:35.776Z,11.00
2023-04-20T19:47:04.017Z,11.00
2023-04-20T19:49:33.420Z,11.00
2023-04-20T19:52:02.794Z,11.00
2023-04-20T19:54:30.908Z,10.90
2023-04-20T19:56:58.971Z,10.90
2023-04-20T19:59:28.358Z,10.90
2023-04-20T20:01:56.474Z,10.90
2023-04-20T20:04:24.728Z,10.90
2023-04-20T20:06:52.851Z,10.80
2023-04-20T20:09:24.231Z,10.90
2023-04-20T20:11:52.471Z,10.90
2023-04-20T20:14:20.604Z,10.90
2023-04-20T20:16:48.833Z,10.80
2023-04-20T20:19:18.215Z,10.80
2023-04-20T20:21:46.479Z,10.80
2023-04-20T20:24:14.618Z,10.80
2023-04-20T20:26:44.040Z,10.80
2023-04-20T20:29:12.032Z,10.90
2023-04-20T20:31:40.078Z,11.00
2023-04-20T20:34:09.268Z,10.90
2023-04-20T20:36:37.380Z,10.90
2023-04-20T20:39:06.629Z,10.80
2023-04-20T20:41:34.717Z,10.80
2023-04-20T20:44:04.155Z,10.80
2023-04-20T20:46:32.633Z,10.90
2023-04-20T20:49:01.335Z,10.80
2023-04-20T20:51:29.555Z,10.90
2023-04-20T20:53:57.746Z,11.00
2023-04-20T20:56:25.961Z,11.00
2023-04-20T20:58:54.587Z,11.00
2023-04-20T21:01:24.047Z,10.90
2023-04-20T21:03:52.348Z,10.80
2023-04-20T21:06:20.583Z,10.80
2023-04-20T21:08:48.656Z,10.90
2023-04-20T21:11:16.656Z,10.90
2023-04-20T21:13:44.723Z,10.90
2023-04-20T21:16:12.787Z,10.90
2023-04-20T21:18:42.290Z,10.90
2023-04-20T21:21:13.387Z,10.80
2023-04-20T21:23:41.400Z,10.80
2023-04-20T21:26:09.382Z,10.70
2023-04-20T21:28:37.430Z,10.80
2023-04-20T21:31:05.523Z,10.80
2023-04-20T21:33:34.768Z,10.80
2023-04-20T21:36:04.407Z,10.70
2023-04-20T21:38:32.468Z,10.70
2023-04-20T21:41:00.580Z,10.70
2023-04-20T21:43:28.648Z,10.70
2023-04-20T21:45:56.795Z,10.70
2023-04-20T21:48:24.977Z,10.70
2023-04-20T21:50:52.987Z,10.70
2023-04-20T21:53:22.505Z,10.70
2023-04-20T21:55:50.522Z,10.70
2023-04-20T21:58:18.583Z,10.80
2023-04-20T22:00:46.632Z,10.70
2023-04-20T22:03:14.827Z,10.80
2023-04-20T22:05:43.001Z,10.90
2023-04-20T22:08:11.655Z,10.90
2023-04-20T22:10:41.321Z,10.90
2023-04-20T22:13:09.354Z,10.90
2023-04-20T22:15:37.480Z,10.80
2023-04-20T22:18:05.839Z,10.80
2023-04-20T22:20:33.891Z,10.80
2023-04-20T22:23:01.928Z,10.80
2023-04-20T22:25:30.160Z,10.80
2023-04-20T22:27:59.565Z,10.70
2023-04-20T22:30:27.797Z,10.70
2023-04-20T22:32:55.903Z,10.70
2023-04-20T22:35:23.940Z,10.70
2023-04-20T22:37:52.019Z,10.70
2023-04-20T22:40:20.125Z,10.80
2023-04-20T22:42:48.166Z,10.90
2023-04-20T22:45:19.658Z,10.90
2023-04-20T22:47:48.035Z,10.80
2023-04-20T22:50:16.163Z,10.80
2023-04-20T22:52:44.305Z,10.80
2023-04-20T22:55:12.342Z,10.80
2023-04-20T22:57:40.473Z,10.80
2023-04-20T23:00:10.567Z,10.70
2023-04-20T23:02:40.518Z,10.80
2023-04-20T23:05:09.553Z,10.80
2023-04-20T23:07:37.629Z,10.80
2023-04-20T23:10:07.028Z,10.80
2023-04-20T23:12:35.052Z,10.80
2023-04-20T23:15:03.687Z,10.90
2023-04-20T23:17:32.264Z,10.90
2023-04-20T23:20:01.637Z,10.80
2023-04-20T23:22:29.688Z,10.80
2023-04-20T23:24:57.715Z,10.70
2023-04-20T23:27:25.749Z,10.80
2023-04-20T23:29:53.826Z,10.80
2023-04-20T23:32:21.871Z,10.80
2023-04-20T23:34:49.985Z,10.80
2023-04-20T23:37:19.358Z,10.80
2023-04-20T23:39:47.398Z,10.80
2023-04-20T23:42:15.488Z,10.70
2023-04-20T23:44:43.478Z,10.80
2023-04-20T23:47:11.501Z,10.70
2023-04-20T23:49:39.505Z,10.70
2023-04-20T23:52:07.581Z,10.70
2023-04-20T23:54:36.939Z,10.80
2023-04-20T23:57:05.059Z,10.70
2023-04-20T23:59:34.615Z,10.70
